Data for 08/03/2006

Time Sea-Level Adjusted Pressure Absolute Pressure Temperature Relative Humidity Dew Point   
(mb) (inHg) (mb) (inHg) (C) (F) (%) (C) (F)
00:05 1020 30.12 849 25.07 15.1 59.2 38 1.1 34
00:10 1020 30.12 849 25.07 15.1 59.1 38 1 33.8
00:15 1020 30.12 849 25.07 15.5 59.9 37 0.8 33.4
00:20 1020 30.12 849 25.07 15.8 60.5 37 1.2 34.2
00:25 1020 30.12 849 25.07 15.4 59.6 37 1 33.8
00:30 1020 30.12 849 25.07 15.2 59.4 36 0.3 32.5
00:35 1020 30.12 849 25.07 15.1 59.1 42 2.5 36.5
00:40 1020 30.12 849 25.07 14.8 58.7 38 0.6 33.1
00:45 1020 30.12 849 25.07 15.4 59.6 38 1.1 34
00:50 1020 30.12 849 25.07 15 59 42 2.4 36.3
00:55 1020 30.12 849 25.07 14.5 58.1 44 2.4 36.3
01:00 1020 30.12 849 25.07 14.3 57.7 45 2.6 36.6
01:05 1020 30.12 849 25.07 14.4 57.9 45 2.6 36.6
01:10 1020 30.12 849 25.07 14.6 58.2 43 2.1 35.8
01:15 1020 30.12 849 25.07 14.6 58.3 44 2.6 36.6
01:20 1020 30.12 849 25.07 14.3 57.7 45 2.6 36.7
01:25 1020 30.12 849 25.07 14.2 57.5 46 2.8 37
01:30 1020 30.12 849 25.07 14 57.3 46 2.8 37.1
01:35 1020 30.12 849 25.07 13.8 56.8 48 3 37.3
01:40 1020 30.12 849 25.07 13.4 56.2 47 2.6 36.6
01:45 1020 30.12 849 25.07 13.5 56.2 49 3.1 37.6
01:50 1020 30.12 849 25.07 12.9 55.3 52 3.4 38.1
01:55 1020 30.12 849 25.07 13 55.4 47 2.1 35.8
02:00 1020 30.12 849 25.07 13.6 56.5 44 1.8 35.2
02:05 1020 30.12 849 25.07 13.7 56.6 45 2 35.6
02:10 1020 30.12 849 25.07 13.6 56.5 43 1.4 34.4
02:15 1020 30.12 849 25.07 13.6 56.5 42 1 33.9
02:20 1020 30.12 849 25.07 13.8 56.8 42 1.1 34
02:25 1020 30.12 849 25.07 13.7 56.6 44 1.8 35.2
02:30 1020 30.12 849 25.07 13.7 56.6 43 1.4 34.6
02:35 1020 30.12 849 25.07 13.7 56.7 44 1.7 35
02:40 1020 30.12 849 25.07 13.7 56.7 45 2 35.7
02:45 1020 30.12 849 25.07 13.3 55.9 48 2.5 36.5
02:50 1020 30.12 849 25.07 12.8 55 50 2.6 36.6
02:55 1020 30.12 849 25.07 12.4 54.3 51 2.6 36.6
03:00 1020 30.12 849 25.07 12.7 54.8 47 1.8 35.3
03:05 1020 30.12 849 25.07 13 55.4 48 2.2 36
03:10 1020 30.12 849 25.07 12.6 54.7 50 2.6 36.7
03:15 1020 30.12 849 25.07 12.5 54.4 49 2.1 35.7
03:20 1020 30.12 849 25.07 12.1 53.9 50 2 35.7
03:25 1020 30.12 849 25.07 12 53.6 51 2.2 35.9
03:30 1020 30.12 849 25.07 12.1 53.7 47 1.2 34.1
03:35 1020 30.12 849 25.07 12.7 54.9 45 1.2 34.1
03:40 1020 30.12 849 25.07 12.8 55.1 45 1.4 34.4
03:45 1020 30.12 849 25.07 12.8 55.1 47 1.9 35.5
03:50 1020 30.12 849 25.07 12.5 54.5 46 1.2 34.1
03:55 1020 30.12 849 25.07 12.6 54.6 46 1.2 34.2
04:00 1020 30.12 849 25.07 12.5 54.6 48 1.9 35.5
04:05 1020 30.12 849 25.07 12.1 53.9 49 1.8 35.2
04:10 1020 30.12 849 25.07 12.7 54.8 43 0.6 33
04:15 1020 30.12 849 25.07 12.9 55.3 44 1.1 34
04:20 1020 30.12 849 25.07 13 55.4 45 1.3 34.3
04:25 1020 30.12 849 25.07 12.5 54.4 47 1.5 34.7
04:30 1020 30.12 849 25.07 12.1 53.8 47 1.3 34.3
04:35 1020 30.12 849 25.07 12.4 54.4 47 1.4 34.5
04:40 1020 30.12 849 25.07 12.6 54.7 47 1.5 34.7
04:45 1020 30.12 849 25.07 12.3 54.1 48 1.6 34.8
04:50 1020 30.12 849 25.07 12 53.6 49 1.6 34.9
04:55 1020 30.12 849 25.07 11.6 52.8 50 1.5 34.7
05:00 1020 30.12 849 25.07 11.6 52.8 49 1.3 34.3
05:05 1020 30.12 849 25.07 11.8 53.2 49 1.4 34.5
05:10 1020 30.12 849 25.07 11.9 53.4 48 1.2 34.1
05:15 1020 30.12 849 25.07 12.4 54.3 46 1.2 34.2
05:20 1020 30.12 849 25.07 11.9 53.5 50 1.8 35.3
05:25 1020 30.12 849 25.07 11.9 53.5 47 1 33.7
05:30 1020 30.12 849 25.07 12.7 54.9 43 0.5 32.9
05:35 1020 30.12 849 25.07 13 55.4 45 1.4 34.6
05:40 1020 30.12 849 25.07 12.5 54.6 45 1 33.8
05:45 1020 30.12 849 25.07 12.4 54.3 48 1.8 35.2
05:50 1020 30.12 849 25.07 12.4 54.4 43 0.4 32.7
05:55 1020 30.12 849 25.07 12.5 54.5 47 1.5 34.6
06:00 1020 30.12 849 25.07 12.7 54.8 43 0.5 32.8
06:05 1020 30.12 849 25.07 12.8 55.1 46 1.6 34.9
06:10 1020 30.12 849 25.07 12.1 53.8 48 1.6 34.8
06:15 1020 30.12 849 25.07 11.8 53.3 49 1.4 34.5
06:20 1020 30.12 849 25.07 11.8 53.3 48 1.4 34.4
06:25 1020 30.12 849 25.07 11.7 53 49 1.4 34.5
06:30 1020 30.12 849 25.07 11.6 52.8 50 1.6 34.8
06:35 1020 30.12 850 25.1 11.5 52.7 49 1.1 34
06:40 1020 30.12 850 25.1 11.5 52.7 49 1.3 34.3
06:45 1020 30.12 850 25.1 11.3 52.3 53 2 35.6
06:50 1020 30.12 850 25.1 11 51.7 52 1.6 34.9
06:55 1020 30.12 850 25.1 11 51.9 51 1.2 34.2
07:00 1020 30.12 850 25.1 11.6 52.8 50 1.6 35
07:05 1020 30.12 850 25.1 11.9 53.4 49 1.6 34.9
07:10 1020 30.12 850 25.1 12.1 53.8 48 1.4 34.5
07:15 1020 30.12 850 25.1 12.1 53.8 48 1.6 34.9
07:20 1020 30.12 850 25.1 12.2 53.9 50 2 35.6
07:25 1020 30.12 850 25.1 12.4 54.3 49 2 35.7
07:30 1020 30.12 850 25.1 12.3 54.1 49 1.9 35.5
07:35 1020 30.12 850 25.1 12.2 54 51 2.3 36.2
07:40 1020 30.12 850 25.1 12.4 54.2 51 2.6 36.6
07:45 1020 30.12 850 25.1 12.5 54.6 49 2.2 35.9
07:50 1020 30.12 850 25.1 13 55.4 47 2 35.6
07:55 1020 30.12 850 25.1 13.6 56.4 47 2.5 36.5
08:00 1021 30.15 850 25.1 14 57.1 44 2 35.6
08:05 1021 30.15 850 25.1 14.3 57.8 44 2.1 35.9
08:10 1021 30.15 850 25.1 14.6 58.2 45 2.7 36.9
08:15 1021 30.15 850 25.1 14.9 58.7 46 3.3 37.9
08:20 1021 30.15 850 25.1 15 59 49 4.6 40.3
08:25 1021 30.15 850 25.1 15.6 60 45 3.7 38.6
08:30 1021 30.15 850 25.1 15.6 60.1 45 3.8 38.8
08:35 1020 30.12 850 25.1 15.8 60.5 43 3.4 38
08:40 1020 30.12 850 25.1 16.5 61.7 42 3.7 38.6
08:45 1020 30.12 850 25.1 17.3 63.1 39 3.2 37.8
08:50 1021 30.15 850 25.1 17.9 64.2 38 3.4 38.1
08:55 1021 30.15 850 25.1 18.4 65.1 35 2.7 36.8
09:00 1021 30.15 850 25.1 18.7 65.6 33 2.2 35.9
09:05 1021 30.15 850 25.1 18.7 65.6 33 2.4 36.3
09:10 1021 30.15 850 25.1 19 66.2 32 2 35.5
09:15 1021 30.15 850 25.1 19.2 66.6 33 2.9 37.3
09:20 1021 30.15 850 25.1 19.2 66.6 33 2.8 37
09:25 1021 30.15 850 25.1 19.9 67.9 31 2.4 36.2
09:30 1021 30.15 850 25.1 20.1 68.3 30 2.3 36.1
09:35 1021 30.15 850 25.1 20.2 68.3 30 2.1 35.8
09:40 1021 30.15 850 25.1 20.3 68.6 31 2.7 36.8
09:45 1021 30.15 850 25.1 20.8 69.4 31 3.4 38.1
09:50 1021 30.15 850 25.1 20.7 69.3 33 3.8 38.9
09:55 1021 30.15 850 25.1 19.3 66.7 35 3.5 38.3
10:00 1021 30.15 850 25.1 20 68 32 2.9 37.2
10:05 1021 30.15 850 25.1 20.1 68.2 31 2.5 36.5
10:10 1021 30.15 850 25.1 20.9 69.6 30 3 37.4
10:15 1021 30.15 850 25.1 20.5 68.9 33 3.7 38.7
10:20 1021 30.15 850 25.1 20.6 69.1 29 2.3 36.1
10:25 1021 30.15 850 25.1 21.1 69.9 30 3.1 37.6
10:30 1021 30.15 850 25.1 21.7 71 26 1.7 35
10:35 1021 30.15 850 25.1 21.5 70.8 25 0.7 33.2
10:40 1021 30.15 850 25.1 21.6 71 26 1.8 35.2
10:45 1021 30.15 850 25.1 22.3 72.1 25 1.3 34.4
10:50 1021 30.15 850 25.1 22.5 72.5 26 2.3 36.1
10:55 1021 30.15 850 25.1 22.5 72.4 27 2.7 36.9
11:00 1021 30.15 850 25.1 21.9 71.3 26 1.7 35
11:05 1021 30.15 850 25.1 21.9 71.3 26 1.6 35
11:10 1020 30.12 850 25.1 22.6 72.7 24 1.4 34.5
11:15 1020 30.12 850 25.1 23.3 73.9 23 1.2 34.2
11:20 1020 30.12 850 25.1 23.2 73.7 22 0.7 33.2
11:25 1020 30.12 850 25.1 22.7 72.8 23 0.9 33.7
11:30 1020 30.12 850 25.1 23.1 73.6 24 1.4 34.5
11:35 1020 30.12 850 25.1 23.7 74.6 22 0.8 33.4
11:40 1020 30.12 849 25.07 23.5 74.3 23 1.3 34.3
11:45 1020 30.12 849 25.07 23.4 74.2 23 1.1 33.9
11:50 1020 30.12 849 25.07 23.6 74.4 23 1.4 34.5
11:55 1020 30.12 849 25.07 23.8 74.8 22 0.9 33.5
12:00 1020 30.12 849 25.07 23.7 74.7 22 0.9 33.7
12:05 1020 30.12 849 25.07 23.8 74.9 21 0.3 32.5
12:10 1020 30.12 849 25.07 24.1 75.3 20 -0.1 31.7
12:15 1020 30.12 849 25.07 24.1 75.5 20 0.1 32.1
12:20 1020 30.12 849 25.07 24.1 75.4 19 -0.8 30.5
12:25 1020 30.12 849 25.07 25.3 77.5 18 -0.3 31.4
12:30 1020 30.12 849 25.07 25.9 78.5 16 -1.7 28.9
12:35 1020 30.12 849 25.07 25.2 77.3 17 -1.3 29.7
12:40 1020 30.12 849 25.07 25 77 17 -1.5 29.3
12:45 1020 30.12 849 25.07 25.4 77.6 17 -1.6 29.2
12:50 1020 30.12 849 25.07 25.6 78 16 -1.7 29
12:55 1020 30.12 849 25.07 26.1 78.9 17 -0.8 30.5
13:00 1020 30.12 849 25.07 25 77 19 -0.1 31.8
13:05 1019 30.09 849 25.07 25.6 78 17 -0.7 30.8
13:10 1019 30.09 849 25.07 25.7 78.2 18 -0.2 31.7
13:15 1019 30.09 848 25.04 25.7 78.3 18 -0.1 31.7
13:20 1019 30.09 848 25.04 26 78.7 18 -0.3 31.5
13:25 1019 30.09 848 25.04 26.2 79.2 16 -1.5 29.4
13:30 1019 30.09 848 25.04 25.8 78.4 17 -0.6 31
13:35 1019 30.09 848 25.04 25.7 78.2 19 0.4 32.7
13:40 1019 30.09 848 25.04 26.2 79.1 16 -1.3 29.7
13:45 1019 30.09 848 25.04 26.7 80 18 0.5 32.9
13:50 1019 30.09 848 25.04 27.2 81 16 -0.4 31.2
13:55 1019 30.09 848 25.04 26.7 80.1 18 1 33.8
14:00 1019 30.09 848 25.04 26.8 80.2 16 -0.7 30.7
14:05 1019 30.09 848 25.04 27 80.6 17 0.4 32.7
14:10 1019 30.09 848 25.04 26.5 79.6 18 0.4 32.8
14:15 1019 30.09 848 25.04 27.2 80.9 18 1.2 34.1
14:20 1018 30.06 848 25.04 27.7 81.8 17 0.5 32.8
14:25 1018 30.06 848 25.04 27.9 82.2 16 0.2 32.3
14:30 1018 30.06 847 25.01 27.3 81.1 16 -0.1 31.8
14:35 1018 30.06 847 25.01 27.7 81.9 16 -0.4 31.3
14:40 1018 30.06 847 25.01 27.6 81.6 18 1 33.9
14:45 1018 30.06 847 25.01 27.8 82.1 16 0.2 32.4
14:50 1018 30.06 847 25.01 28.2 82.7 16 0 32
14:55 1018 30.06 847 25.01 28.7 83.6 16 0.6 33.1
15:00 1018 30.06 847 25.01 28.5 83.2 16 0.5 32.9
15:05 1018 30.06 847 25.01 27.7 81.9 16 0.2 32.4
15:10 1018 30.06 847 25.01 27.2 80.9 18 1 33.7
15:15 1018 30.06 847 25.01 27.3 81.1 18 1.4 34.6
15:20 1018 30.06 847 25.01 27.5 81.6 18 1.1 33.9
15:25 1018 30.06 847 25.01 28.1 82.5 16 0.3 32.6
15:30 1018 30.06 847 25.01 27.1 80.8 18 1.4 34.5
15:35 1018 30.06 847 25.01 26.9 80.4 19 1.4 34.6
15:40 1018 30.06 847 25.01 27.5 81.5 16 0 32
15:45 1017 30.03 847 25.01 26.8 80.2 19 1.2 34.1
15:50 1017 30.03 847 25.01 26.7 80 18 0.9 33.7
15:55 1017 30.03 847 25.01 26.4 79.5 18 0.5 32.9
16:00 1017 30.03 847 25.01 26.7 80.1 18 0.8 33.5
16:05 1017 30.03 847 25.01 26.6 79.8 17 -0.2 31.7
16:10 1017 30.03 847 25.01 26.6 79.8 16 -1 30.2
16:15 1017 30.03 847 25.01 26.8 80.3 18 0.7 33.2
16:20 1017 30.03 846 24.98 27.3 81.1 16 -0.5 31.2
16:25 1017 30.03 846 24.98 27 80.5 15 -1.2 29.9
16:30 1017 30.03 846 24.98 27.2 80.9 16 -0.9 30.4
16:35 1017 30.03 846 24.98 27.4 81.3 15 -1.1 30
16:40 1017 30.03 847 25.01 28.5 83.3 15 -0.4 31.2
16:45 1017 30.03 847 25.01 28.8 83.8 14 -0.8 30.6
16:50 1017 30.03 846 24.98 28.1 82.5 15 -0.7 30.8
16:55 1017 30.03 846 24.98 28.6 83.5 14 -1.1 29.9
17:00 1017 30.03 846 24.98 28.5 83.3 15 -0.1 31.7
17:05 1017 30.03 846 24.98 29 84.2 14 -0.7 30.7
17:10 1017 30.03 846 24.98 29 84.2 15 0.4 32.6
17:15 1017 30.03 847 25.01 28.7 83.6 14 -0.7 30.8
17:20 1017 30.03 847 25.01 28.5 83.3 16 0.6 33.1
17:25 1017 30.03 846 24.98 27.1 80.8 19 1.7 35.1
17:30 1017 30.03 847 25.01 26.5 79.8 21 2.6 36.7
17:35 1017 30.03 847 25.01 26.7 80 18 0.5 32.9
17:40 1017 30.03 847 25.01 26.9 80.4 16 -0.4 31.2
17:45 1017 30.03 846 24.98 27.2 80.9 17 -0.1 31.8
17:50 1017 30.03 846 24.98 26.7 80 19 1.5 34.7
17:55 1017 30.03 846 24.98 26.8 80.2 19 1.4 34.5
18:00 1017 30.03 846 24.98 26.7 80.1 18 0.7 33.2
18:05 1017 30.03 846 24.98 27.1 80.9 18 1.2 34.2
18:10 1017 30.03 846 24.98 27.5 81.6 16 -0.2 31.7
18:15 1017 30.03 846 24.98 27 80.7 20 2.5 36.5
18:20 1017 30.03 846 24.98 26.1 79 22 3.1 37.6
18:25 1017 30.03 846 24.98 25.5 78 22 2.4 36.3
18:30 1017 30.03 846 24.98 25.2 77.3 22 2.4 36.4
18:35 1017 30.03 846 24.98 25.1 77.2 23 2.8 37.1
18:40 1017 30.03 846 24.98 25.2 77.4 22 2.1 35.9
18:45 1017 30.03 846 24.98 25.2 77.3 22 2.5 36.5
18:50 1017 30.03 846 24.98 25.1 77.1 23 2.4 36.4
18:55 1017 30.03 846 24.98 25.1 77.2 22 2.3 36.2
19:00 1017 30.03 846 24.98 25.1 77.2 23 2.5 36.6
19:05 1017 30.03 846 24.98 25 77 24 3.4 38.2
19:10 1017 30.03 846 24.98 25 76.9 23 2.5 36.4
19:15 1017 30.03 846 24.98 24.9 76.8 24 2.9 37.2
19:20 1017 30.03 846 24.98 24.9 76.9 23 2.6 36.7
19:25 1017 30.03 846 24.98 25 77 22 2.2 36
19:30 1017 30.03 846 24.98 25 77 24 3.2 37.7
19:35 1017 30.03 846 24.98 24.9 76.8 23 2.4 36.3
19:40 1017 30.03 846 24.98 24.8 76.6 24 3.2 37.7
19:45 1017 30.03 846 24.98 24.8 76.6 23 2.5 36.5
19:50 1017 30.03 846 24.98 24.7 76.4 24 2.9 37.1
19:55 1017 30.03 846 24.98 24.3 75.7 26 3.9 39
20:00 1017 30.03 846 24.98 24.1 75.4 24 2.6 36.7
20:05 1017 30.03 846 24.98 24 75.2 24 2.4 36.4
20:10 1017 30.03 846 24.98 23.9 75 25 2.6 36.7
20:15 1017 30.03 846 24.98 23.4 74.2 26 3.1 37.6
20:20 1017 30.03 846 24.98 23.3 74 25 2.6 36.6
20:25 1017 30.03 846 24.98 23.3 74 25 2.2 35.9
20:30 1017 30.03 846 24.98 23.2 73.7 25 2.3 36.1
20:35 1017 30.03 846 24.98 22.9 73.1 26 2.3 36.2
20:40 1017 30.03 846 24.98 22.6 72.7 26 2.5 36.4
20:45 1017 30.03 846 24.98 22.3 72.1 27 2.4 36.3
20:50 1017 30.03 846 24.98 22.2 71.9 27 2.4 36.2
20:55 1017 30.03 846 24.98 22.2 71.9 27 2.4 36.3
21:00 1017 30.03 846 24.98 22 71.6 27 2.2 36
21:05 1017 30.03 846 24.98 22 71.5 27 2.4 36.3
21:10 1017 30.03 846 24.98 22.2 72 25 1.6 34.9
21:15 1017 30.03 846 24.98 22.6 72.7 27 2.9 37.2
21:20 1017 30.03 846 24.98 22.7 72.9 24 1.5 34.6
21:25 1017 30.03 847 25.01 22.9 73.3 25 1.9 35.4
21:30 1017 30.03 847 25.01 22.7 72.9 25 2.1 35.9
21:35 1017 30.03 847 25.01 22.1 71.8 27 2.3 36.2
21:40 1017 30.03 847 25.01 21.8 71.2 27 2.1 35.7
21:45 1017 30.03 847 25.01 21.8 71.2 27 2 35.7
21:50 1018 30.06 847 25.01 21.7 71 27 2.3 36.1
21:55 1018 30.06 847 25.01 21.4 70.5 28 2.4 36.3
22:00 1018 30.06 847 25.01 21.2 70.1 28 2.3 36.1
22:05 1018 30.06 847 25.01 21.2 70.1 28 2.1 35.8
22:10 1018 30.06 847 25.01 21.2 70.2 28 2.1 35.7
22:15 1018 30.06 847 25.01 21.2 70.1 28 2.1 35.8
22:20 1018 30.06 847 25.01 21 69.7 28 2.1 35.8
22:25 1018 30.06 847 25.01 20.9 69.6 28 2.1 35.7
22:30 1018 30.06 847 25.01 20.8 69.4 28 2 35.7
22:35 1018 30.06 847 25.01 20.7 69.3 29 2.2 35.9
22:40 1018 30.06 847 25.01 20.5 69 29 2.2 36
22:45 1018 30.06 847 25.01 20.3 68.6 30 2.1 35.9
22:50 1018 30.06 847 25.01 20.2 68.3 30 2 35.7
22:55 1018 30.06 847 25.01 20.1 68.1 30 2.1 35.7
23:00 1018 30.06 847 25.01 20.1 68.1 30 2.1 35.7
23:05 1018 30.06 847 25.01 20 68 30 2 35.6
23:10 1018 30.06 847 25.01 20 68 29 1.8 35.3
23:15 1018 30.06 847 25.01 20.2 68.3 30 2 35.6
23:20 1018 30.06 847 25.01 20 68 30 2 35.6
23:25 1018 30.06 847 25.01 19.9 67.9 30 2.2 35.9
23:30 1018 30.06 847 25.01 19.7 67.4 32 2.5 36.4
23:35 1018 30.06 847 25.01 19.4 66.9 31 2 35.6
23:40 1018 30.06 847 25.01 19.5 67 31 1.9 35.5
23:45 1018 30.06 847 25.01 19.4 67 31 2.1 35.8
23:50 1018 30.06 847 25.01 19.2 66.6 32 2.4 36.4
23:55 1018 30.06 847 25.01 18.8 65.8 33 2.5 36.5
24:00 1018 30.06 847 25.01 18.5 65.2 34 2.3 36.1